createdAt,value
2023-04-25T00:02:19.016Z,2.75
2023-04-25T00:04:46.159Z,2.70
2023-04-25T00:07:13.693Z,2.45
2023-04-25T00:09:40.308Z,2.95
2023-04-25T00:12:07.330Z,3.00
2023-04-25T00:14:36.826Z,3.60
2023-04-25T00:17:06.923Z,2.65
2023-04-25T00:19:33.630Z,2.80
2023-04-25T00:22:00.342Z,2.72
2023-04-25T00:24:26.991Z,2.88
2023-04-25T00:26:53.633Z,3.88
2023-04-25T00:29:20.373Z,4.50
2023-04-25T00:31:47.009Z,3.33
2023-04-25T00:34:13.654Z,3.13
2023-04-25T00:36:40.291Z,3.20
2023-04-25T00:39:07.626Z,2.55
2023-04-25T00:41:34.380Z,2.65
2023-04-25T00:44:02.449Z,3.10
2023-04-25T00:46:29.060Z,3.65
2023-04-25T00:48:55.760Z,5.03
2023-04-25T00:51:23.066Z,3.25
2023-04-25T00:53:51.276Z,3.13
2023-04-25T00:56:18.773Z,3.00
2023-04-25T00:58:45.737Z,2.53
2023-04-25T01:01:13.735Z,2.53
2023-04-25T01:03:44.087Z,2.53
2023-04-25T01:06:11.667Z,3.15
2023-04-25T01:08:40.335Z,3.15
2023-04-25T01:11:07.654Z,3.30
2023-04-25T01:13:35.107Z,3.08
2023-04-25T01:16:03.556Z,2.72
2023-04-25T01:18:30.378Z,4.05
2023-04-25T01:20:59.083Z,3.42
2023-04-25T01:23:26.095Z,3.83
2023-04-25T01:25:52.969Z,3.13
2023-04-25T01:28:20.181Z,2.85
2023-04-25T01:30:47.975Z,2.72
2023-04-25T01:33:15.436Z,3.47
2023-04-25T01:35:42.121Z,3.42
2023-04-25T01:38:08.825Z,2.47
2023-04-25T01:40:38.259Z,3.42
2023-04-25T01:43:04.950Z,3.10
2023-04-25T01:45:31.669Z,3.22
2023-04-25T01:48:00.408Z,3.25
2023-04-25T01:50:27.236Z,3.20
2023-04-25T01:52:55.014Z,2.90
2023-04-25T01:55:21.674Z,3.90
2023-04-25T01:57:48.343Z,2.75
2023-04-25T02:00:15.182Z,2.80
2023-04-25T02:02:42.112Z,2.92
2023-04-25T02:05:08.927Z,3.50
2023-04-25T02:07:35.556Z,3.83
2023-04-25T02:10:02.332Z,2.78
2023-04-25T02:12:29.170Z,3.33
2023-04-25T02:14:55.779Z,3.35
2023-04-25T02:17:22.773Z,2.80
2023-04-25T02:19:49.439Z,2.88
2023-04-25T02:22:16.075Z,3.70
2023-04-25T02:24:42.716Z,3.10
2023-04-25T02:27:09.463Z,3.50
2023-04-25T02:29:36.255Z,3.70
2023-04-25T02:32:03.180Z,4.45
2023-04-25T02:34:29.773Z,3.55
2023-04-25T02:36:56.417Z,3.17
2023-04-25T02:39:23.334Z,3.30
2023-04-25T02:41:50.000Z,2.83
2023-04-25T02:44:16.589Z,2.40
2023-04-25T02:46:43.191Z,2.45
2023-04-25T02:49:09.810Z,3.00
2023-04-25T02:51:36.516Z,3.33
2023-04-25T02:54:03.248Z,3.55
2023-04-25T02:56:30.050Z,3.13
2023-04-25T02:58:56.659Z,2.72
2023-04-25T03:01:23.347Z,2.42
2023-04-25T03:03:50.291Z,3.25
2023-04-25T03:06:17.153Z,2.58
2023-04-25T03:08:44.037Z,2.75
2023-04-25T03:11:11.566Z,2.90
2023-04-25T03:13:38.322Z,2.25
2023-04-25T03:16:05.536Z,2.72
2023-04-25T03:18:32.220Z,2.92
2023-04-25T03:20:58.978Z,3.50
2023-04-25T03:23:25.686Z,2.80
2023-04-25T03:25:52.360Z,2.70
2023-04-25T03:28:19.065Z,2.70
2023-04-25T03:30:45.746Z,2.20
2023-04-25T03:33:12.464Z,2.50
2023-04-25T03:35:39.068Z,3.08
2023-04-25T03:38:05.766Z,2.92
2023-04-25T03:40:32.423Z,2.63
2023-04-25T03:42:59.026Z,2.55
2023-04-25T03:45:25.853Z,3.05
2023-04-25T03:47:52.539Z,2.88
2023-04-25T03:50:19.258Z,2.63
2023-04-25T03:52:45.907Z,3.40
2023-04-25T03:55:12.586Z,3.10
2023-04-25T03:57:39.307Z,2.67
2023-04-25T04:00:07.686Z,2.83
2023-04-25T04:02:36.103Z,2.53
2023-04-25T04:05:03.924Z,2.50
2023-04-25T04:07:30.910Z,2.65
2023-04-25T04:09:57.491Z,2.58
2023-04-25T04:12:24.069Z,2.78
2023-04-25T04:14:50.754Z,3.20
2023-04-25T04:17:17.390Z,3.45
2023-04-25T04:19:43.984Z,2.95
2023-04-25T04:22:11.099Z,3.33
2023-04-25T04:24:37.695Z,3.25
2023-04-25T04:27:05.156Z,2.28
2023-04-25T04:29:32.047Z,2.88
2023-04-25T04:31:58.878Z,2.85
2023-04-25T04:34:26.766Z,2.58
2023-04-25T04:36:53.604Z,2.58
2023-04-25T04:39:20.190Z,2.72
2023-04-25T04:41:47.390Z,2.35
2023-04-25T04:44:15.781Z,2.40
2023-04-25T04:46:45.567Z,2.50
2023-04-25T04:49:13.362Z,2.95
2023-04-25T04:51:40.279Z,3.20
2023-04-25T04:54:07.108Z,2.33
2023-04-25T04:56:34.042Z,2.88
2023-04-25T04:59:01.208Z,2.70
2023-04-25T05:01:28.211Z,2.55
2023-04-25T05:03:55.403Z,3.42
2023-04-25T05:06:22.285Z,2.95
2023-04-25T05:08:48.905Z,3.35
2023-04-25T05:11:15.684Z,2.65
2023-04-25T05:13:42.372Z,2.88
2023-04-25T05:16:09.295Z,2.92
2023-04-25T05:18:36.181Z,3.08
2023-04-25T05:21:02.798Z,3.28
2023-04-25T05:23:32.592Z,2.70
2023-04-25T05:26:00.523Z,3.13
2023-04-25T05:28:27.166Z,2.72
2023-04-25T05:30:54.504Z,2.90
2023-04-25T05:33:21.490Z,3.65
2023-04-25T05:35:48.190Z,3.55
2023-04-25T05:38:14.870Z,3.42
2023-04-25T05:40:41.842Z,2.65
2023-04-25T05:43:08.504Z,2.85
2023-04-25T05:45:35.370Z,3.30
2023-04-25T05:48:02.004Z,2.85
2023-04-25T05:50:28.721Z,3.00
2023-04-25T05:52:55.348Z,3.33
2023-04-25T05:55:21.986Z,3.22
2023-04-25T05:57:50.156Z,3.58
2023-04-25T06:00:19.950Z,2.85
2023-04-25T06:02:47.129Z,3.42
2023-04-25T06:05:13.997Z,3.42
2023-04-25T06:07:40.962Z,4.30
2023-04-25T06:10:08.585Z,3.83
2023-04-25T06:12:35.213Z,3.97
2023-04-25T06:15:02.634Z,4.05
2023-04-25T06:17:30.178Z,3.47
2023-04-25T06:19:56.807Z,4.28
2023-04-25T06:22:23.386Z,5.47
2023-04-25T06:24:50.067Z,3.63
2023-04-25T06:27:17.499Z,3.40
2023-04-25T06:29:44.410Z,3.25
2023-04-25T06:32:11.006Z,3.60
2023-04-25T06:34:38.088Z,3.65
2023-04-25T06:37:04.735Z,2.88
2023-04-25T06:39:31.329Z,3.53
2023-04-25T06:41:57.924Z,2.60
2023-04-25T06:44:25.150Z,2.40
2023-04-25T06:46:51.924Z,4.38
2023-04-25T06:49:18.746Z,2.33
2023-04-25T06:51:45.419Z,1.98
2023-04-25T06:54:12.063Z,3.17
2023-04-25T06:56:38.848Z,2.03
2023-04-25T06:59:05.585Z,2.65
2023-04-25T07:01:32.216Z,2.65
2023-04-25T07:03:59.095Z,2.03
2023-04-25T07:06:26.985Z,2.53
2023-04-25T07:08:53.770Z,1.80
2023-04-25T07:11:20.734Z,2.03
2023-04-25T07:13:47.348Z,2.50
2023-04-25T07:16:14.118Z,2.13
2023-04-25T07:18:40.845Z,2.30
2023-04-25T07:21:07.538Z,2.53
2023-04-25T07:23:34.246Z,2.95
2023-04-25T07:26:00.828Z,2.10
2023-04-25T07:28:27.494Z,4.47
2023-04-25T07:30:54.110Z,2.55
2023-04-25T07:33:21.596Z,2.58
2023-04-25T07:35:48.515Z,2.17
2023-04-25T07:38:15.505Z,2.10
2023-04-25T07:40:42.212Z,1.90
2023-04-25T07:43:08.847Z,2.25
2023-04-25T07:45:35.543Z,2.25
2023-04-25T07:48:02.214Z,1.90
2023-04-25T07:50:28.932Z,2.20
2023-04-25T07:52:55.588Z,2.95
2023-04-25T07:55:22.241Z,1.80
2023-04-25T07:57:49.445Z,1.35
2023-04-25T08:00:16.370Z,2.28
2023-04-25T08:02:43.196Z,1.80
2023-04-25T08:05:12.912Z,2.13
2023-04-25T08:07:40.101Z,1.50
2023-04-25T08:10:07.891Z,2.10
2023-04-25T08:12:34.837Z,1.95
2023-04-25T08:15:01.455Z,1.27
2023-04-25T08:17:28.504Z,1.77
2023-04-25T08:19:55.327Z,1.98
2023-04-25T08:22:22.097Z,1.55
2023-04-25T08:24:48.989Z,1.50
2023-04-25T08:27:16.057Z,1.92
2023-04-25T08:29:43.522Z,1.80
2023-04-25T08:32:10.218Z,1.45
2023-04-25T08:34:38.965Z,1.48
2023-04-25T08:37:06.750Z,1.50
2023-04-25T08:39:33.413Z,1.77
2023-04-25T08:42:01.955Z,1.85
2023-04-25T08:44:28.728Z,1.20
2023-04-25T08:46:57.088Z,1.50
2023-04-25T08:49:24.658Z,1.65
2023-04-25T08:51:52.640Z,1.80
2023-04-25T08:54:34.421Z,1.55
2023-04-25T08:57:05.388Z,1.60
2023-04-25T08:59:33.819Z,1.70
2023-04-25T09:02:02.349Z,1.50
2023-04-25T09:04:32.328Z,1.50
2023-04-25T09:06:59.868Z,1.55
2023-04-25T09:09:27.513Z,1.23
2023-04-25T09:11:55.668Z,1.83
2023-04-25T09:14:24.064Z,1.80
2023-04-25T09:17:11.312Z,1.40
2023-04-25T09:19:42.085Z,1.35
2023-04-25T09:22:09.840Z,1.48
2023-04-25T09:24:37.574Z,1.40
2023-04-25T09:27:08.760Z,1.30
2023-04-25T09:29:41.660Z,1.65
2023-04-25T09:32:23.792Z,1.05
2023-04-25T09:34:52.427Z,1.38
2023-04-25T09:37:30.698Z,1.30
2023-04-25T09:40:06.377Z,1.33
2023-04-25T09:42:35.519Z,1.13
2023-04-25T09:45:05.039Z,1.38
2023-04-25T09:47:31.978Z,0.90
2023-04-25T09:49:59.456Z,1.83
2023-04-25T09:52:26.700Z,1.23
2023-04-25T09:54:53.988Z,1.20
2023-04-25T09:57:25.449Z,1.50
2023-04-25T09:59:56.583Z,1.27
2023-04-25T10:02:27.118Z,1.05
2023-04-25T10:04:56.247Z,1.25
2023-04-25T10:07:27.127Z,1.23
2023-04-25T10:10:04.065Z,1.30
2023-04-25T10:15:01.554Z,1.30
2023-04-25T10:17:31.731Z,1.52
2023-04-25T10:19:58.985Z,1.67
2023-04-25T10:22:38.301Z,1.13
2023-04-25T10:25:08.166Z,1.60
2023-04-25T10:27:37.114Z,1.25
2023-04-25T10:30:14.207Z,1.40
2023-04-25T10:32:44.100Z,1.10
2023-04-25T10:35:15.508Z,1.10
2023-04-25T10:38:04.293Z,1.40
2023-04-25T10:40:31.599Z,1.40
2023-04-25T10:43:33.031Z,1.45
2023-04-25T10:46:03.125Z,1.00
2023-04-25T10:48:31.399Z,1.48
2023-04-25T10:51:10.365Z,1.27
2023-04-25T10:53:37.242Z,2.08
2023-04-25T10:56:21.449Z,1.27
2023-04-25T10:58:51.176Z,1.58
2023-04-25T11:01:25.737Z,1.58
2023-04-25T11:03:59.582Z,1.50
2023-04-25T11:06:33.528Z,1.40
2023-04-25T11:09:03.752Z,1.27
2023-04-25T11:11:31.831Z,1.50
2023-04-25T11:13:59.279Z,1.27
2023-04-25T11:16:28.395Z,1.40
2023-04-25T11:19:17.271Z,1.38
2023-04-25T11:21:44.125Z,1.45
2023-04-25T11:24:11.126Z,1.48
2023-04-25T11:26:38.638Z,1.83
2023-04-25T11:29:05.267Z,1.50
2023-04-25T11:31:32.025Z,1.80
2023-04-25T11:33:59.154Z,1.33
2023-04-25T11:36:27.150Z,1.42
2023-04-25T11:38:55.394Z,1.45
2023-04-25T11:41:23.206Z,1.40
2023-04-25T11:43:50.938Z,2.00
2023-04-25T11:46:17.680Z,1.63
2023-04-25T11:48:44.650Z,1.65
2023-04-25T11:51:11.427Z,1.40
2023-04-25T11:53:42.508Z,2.38
2023-04-25T11:56:12.858Z,1.50
2023-04-25T11:58:56.693Z,1.85
2023-04-25T12:01:33.076Z,2.22
2023-04-25T12:04:24.106Z,2.35
2023-04-25T12:06:55.460Z,1.90
2023-04-25T12:09:29.696Z,1.95
2023-04-25T12:11:57.779Z,1.67
2023-04-25T12:14:28.161Z,1.75
2023-04-25T12:17:01.207Z,1.80
2023-04-25T12:19:34.336Z,2.65
2023-04-25T12:22:02.136Z,1.85
2023-04-25T12:24:29.195Z,1.60
2023-04-25T12:27:05.156Z,1.48
2023-04-25T12:29:48.444Z,1.60
2023-04-25T12:32:16.740Z,1.50
2023-04-25T12:34:43.679Z,1.42
2023-04-25T12:37:10.491Z,1.67
2023-04-25T12:39:37.654Z,1.58
2023-04-25T12:42:06.935Z,1.80
2023-04-25T12:44:35.985Z,2.05
2023-04-25T12:47:04.483Z,1.40
2023-04-25T12:49:31.336Z,1.60
2023-04-25T12:51:58.891Z,1.83
2023-04-25T12:54:26.929Z,1.55
2023-04-25T12:56:53.789Z,1.77
2023-04-25T12:59:21.581Z,1.45
2023-04-25T13:01:48.536Z,1.70
2023-04-25T13:04:16.225Z,1.50
2023-04-25T13:06:43.424Z,1.52
2023-04-25T13:09:10.122Z,1.48
2023-04-25T13:11:37.321Z,1.77
2023-04-25T13:14:04.018Z,1.92
2023-04-25T13:16:30.854Z,1.90
2023-04-25T13:18:58.138Z,2.20
2023-04-25T13:21:24.837Z,2.08
2023-04-25T13:23:52.236Z,1.60
2023-04-25T13:26:19.108Z,1.45
2023-04-25T13:28:46.767Z,1.70
2023-04-25T13:31:14.749Z,1.60
2023-04-25T13:33:41.346Z,1.98
2023-04-25T13:36:08.139Z,1.65
2023-04-25T13:38:34.777Z,1.75
2023-04-25T13:41:02.041Z,2.08
2023-04-25T13:43:28.733Z,1.70
2023-04-25T13:45:55.584Z,1.80
2023-04-25T13:48:23.668Z,2.50
2023-04-25T13:50:50.325Z,1.73
2023-04-25T13:53:17.107Z,1.50
2023-04-25T13:55:43.717Z,2.10
2023-04-25T13:58:11.131Z,1.60
2023-04-25T14:00:40.245Z,2.67
2023-04-25T14:03:10.771Z,1.50
2023-04-25T14:05:41.184Z,1.90
2023-04-25T14:08:09.534Z,1.95
2023-04-25T14:10:36.743Z,2.20
2023-04-25T14:13:04.390Z,2.03
2023-04-25T14:15:34.486Z,1.92
2023-04-25T14:18:02.012Z,1.90
2023-04-25T14:20:29.216Z,2.13
2023-04-25T14:22:57.224Z,1.60
2023-04-25T14:25:24.531Z,2.97
2023-04-25T14:27:51.409Z,1.90
2023-04-25T14:30:19.567Z,1.75
2023-04-25T14:32:46.668Z,1.90
2023-04-25T14:35:13.762Z,1.55
2023-04-25T14:37:40.984Z,2.10
2023-04-25T14:40:11.812Z,1.80
2023-04-25T14:42:38.731Z,1.30
2023-04-25T14:45:08.329Z,2.10
2023-04-25T14:47:37.086Z,2.25
2023-04-25T14:50:04.281Z,2.08
2023-04-25T14:52:31.740Z,2.05
2023-04-25T14:54:58.353Z,2.72
2023-04-25T14:57:25.085Z,1.80
2023-04-25T14:59:51.668Z,2.70
2023-04-25T15:02:18.735Z,1.92
2023-04-25T15:04:45.516Z,1.90
2023-04-25T15:07:12.156Z,1.95
2023-04-25T15:09:38.751Z,2.47
2023-04-25T15:12:05.586Z,1.63
2023-04-25T15:14:32.292Z,1.83
2023-04-25T15:16:59.053Z,1.98
2023-04-25T15:19:25.897Z,1.75
2023-04-25T15:21:52.789Z,2.63
2023-04-25T15:24:19.427Z,2.35
2023-04-25T15:26:46.991Z,2.03
2023-04-25T15:29:13.626Z,2.45
2023-04-25T15:31:40.325Z,2.10
2023-04-25T15:34:07.080Z,2.50
2023-04-25T15:36:35.177Z,2.17
2023-04-25T15:39:01.864Z,2.05
2023-04-25T15:41:29.365Z,4.38
2023-04-25T15:43:56.022Z,4.88
2023-04-25T15:46:24.504Z,2.63
2023-04-25T15:48:51.269Z,2.60
2023-04-25T15:51:18.095Z,3.40
2023-04-25T15:53:44.744Z,2.42
2023-04-25T15:56:11.528Z,1.90
2023-04-25T15:58:38.165Z,2.50
2023-04-25T16:01:05.129Z,2.17
2023-04-25T16:03:34.479Z,2.05
2023-04-25T16:06:03.254Z,1.95
2023-04-25T16:08:34.231Z,1.83
2023-04-25T16:11:01.324Z,1.60
2023-04-25T16:13:29.900Z,2.30
2023-04-25T16:15:56.872Z,2.20
2023-04-25T16:18:23.698Z,1.80
2023-04-25T16:20:50.552Z,2.33
2023-04-25T16:23:18.132Z,1.92
2023-04-25T16:25:44.941Z,2.80
2023-04-25T16:28:11.683Z,1.95
2023-04-25T16:30:38.458Z,2.30
2023-04-25T16:33:05.238Z,2.58
2023-04-25T16:35:32.583Z,2.30
2023-04-25T16:37:59.441Z,2.20
2023-04-25T16:40:27.056Z,2.13
2023-04-25T16:42:53.676Z,2.65
2023-04-25T16:45:21.521Z,2.17
2023-04-25T16:47:48.448Z,3.15
2023-04-25T16:50:15.561Z,1.85
2023-04-25T16:52:44.300Z,2.00
2023-04-25T16:55:11.526Z,2.05
2023-04-25T16:57:38.281Z,1.90
2023-04-25T17:00:09.903Z,2.75
2023-04-25T17:02:37.188Z,1.90
2023-04-25T17:05:04.154Z,2.10
2023-04-25T17:07:31.151Z,2.17
2023-04-25T17:09:57.774Z,2.15
2023-04-25T17:12:24.382Z,2.10
2023-04-25T17:14:51.184Z,2.25
2023-04-25T17:17:18.956Z,2.10
2023-04-25T17:19:46.583Z,1.98
2023-04-25T17:22:13.465Z,2.72
2023-04-25T17:24:40.779Z,1.98
2023-04-25T17:27:07.683Z,2.05
2023-04-25T17:29:35.250Z,1.70
2023-04-25T17:32:02.033Z,2.17
2023-04-25T17:34:29.106Z,2.80
2023-04-25T17:36:55.787Z,2.53
2023-04-25T17:39:22.439Z,1.63
2023-04-25T17:41:49.133Z,2.60
2023-04-25T17:44:15.849Z,2.03
2023-04-25T17:46:42.554Z,2.10
2023-04-25T17:49:09.199Z,2.05
2023-04-25T17:51:35.880Z,2.35
2023-04-25T17:54:02.508Z,2.05
2023-04-25T17:56:29.312Z,2.30
2023-04-25T17:58:56.336Z,2.70
2023-04-25T18:01:23.243Z,2.70
2023-04-25T18:03:50.555Z,2.60
2023-04-25T18:06:18.010Z,2.22
2023-04-25T18:08:44.936Z,2.55
2023-04-25T18:11:12.163Z,1.95
2023-04-25T18:13:39.214Z,1.80
2023-04-25T18:16:06.332Z,1.95
2023-04-25T18:18:36.938Z,2.13
2023-04-25T18:21:05.852Z,2.45
2023-04-25T18:23:35.652Z,2.28
2023-04-25T18:26:04.257Z,2.10
2023-04-25T18:28:31.019Z,2.50
2023-04-25T18:30:58.065Z,2.63
2023-04-25T18:33:25.285Z,2.08
2023-04-25T18:38:35.019Z,2.05
2023-04-25T18:41:15.550Z,1.92
2023-04-25T18:43:50.554Z,2.15
2023-04-25T18:46:22.165Z,2.38
2023-04-25T18:48:50.328Z,2.20
2023-04-25T18:51:17.506Z,1.83
2023-04-25T18:53:44.199Z,2.03
2023-04-25T18:56:10.920Z,2.05
2023-04-25T18:58:37.704Z,2.15
2023-04-25T19:01:04.914Z,2.47
2023-04-25T19:03:31.899Z,2.47
2023-04-25T19:05:58.744Z,2.47
2023-04-25T19:08:26.811Z,2.15
2023-04-25T19:10:54.254Z,1.75
2023-04-25T19:13:21.536Z,2.08
2023-04-25T19:15:48.420Z,3.40
2023-04-25T19:18:15.188Z,2.78
2023-04-25T19:20:42.279Z,2.55
2023-04-25T19:23:09.152Z,2.60
2023-04-25T19:25:36.398Z,3.13
2023-04-25T19:28:03.593Z,2.58
2023-04-25T19:30:31.513Z,2.63
2023-04-25T19:32:58.209Z,3.47
2023-04-25T19:35:25.422Z,2.85
2023-04-25T19:37:52.017Z,3.58
2023-04-25T19:40:20.226Z,3.40
2023-04-25T19:42:46.884Z,3.00
2023-04-25T19:45:13.744Z,3.90
2023-04-25T19:47:41.970Z,2.85
2023-04-25T19:50:09.526Z,3.30
2023-04-25T19:52:36.954Z,2.97
2023-04-25T19:55:05.123Z,2.88
2023-04-25T19:57:37.807Z,3.33
2023-04-25T20:00:12.080Z,2.65
2023-04-25T20:02:39.401Z,3.33
2023-04-25T20:05:08.394Z,2.95
2023-04-25T20:07:35.573Z,3.30
2023-04-25T20:10:02.171Z,3.13
2023-04-25T20:12:28.821Z,3.03
2023-04-25T20:14:56.452Z,3.42
2023-04-25T20:17:23.148Z,3.08
2023-04-25T20:19:49.788Z,3.53
2023-04-25T20:22:16.414Z,2.88
2023-04-25T20:24:43.056Z,2.88
2023-04-25T20:27:09.739Z,2.97
2023-04-25T20:29:36.866Z,3.25
2023-04-25T20:32:03.742Z,3.10
2023-04-25T20:34:31.704Z,3.88
2023-04-25T20:36:58.354Z,3.33
2023-04-25T20:39:35.803Z,3.83
2023-04-25T20:42:03.085Z,3.20
2023-04-25T20:44:29.822Z,3.03
2023-04-25T20:46:56.516Z,3.75
2023-04-25T20:49:23.152Z,3.88
2023-04-25T20:51:49.759Z,3.08
2023-04-25T20:54:16.686Z,3.47
2023-04-25T20:56:43.343Z,3.50
2023-04-25T20:59:09.995Z,3.60
2023-04-25T21:01:36.746Z,3.25
2023-04-25T21:04:03.716Z,3.70
2023-04-25T21:06:31.344Z,3.53
2023-04-25T21:08:57.936Z,3.67
2023-04-25T21:11:24.592Z,3.72
2023-04-25T21:13:51.817Z,3.83
2023-04-25T21:16:18.885Z,2.97
2023-04-25T21:18:45.499Z,3.50
2023-04-25T21:21:12.254Z,3.85
2023-04-25T21:23:39.606Z,3.90
2023-04-25T21:26:06.518Z,3.92
2023-04-25T21:28:33.142Z,3.17
2023-04-25T21:30:59.951Z,3.15
2023-04-25T21:33:26.952Z,3.95
2023-04-25T21:35:53.548Z,3.25
2023-04-25T21:38:20.249Z,3.42
2023-04-25T21:40:46.944Z,3.95
2023-04-25T21:43:13.617Z,3.20
2023-04-25T21:45:56.941Z,2.92
2023-04-25T21:48:26.781Z,4.13
2023-04-25T21:50:53.663Z,3.92
2023-04-25T21:53:20.263Z,3.42
2023-04-25T21:55:46.935Z,4.28
2023-04-25T21:58:13.593Z,3.97
2023-04-25T22:00:40.208Z,3.63
2023-04-25T22:03:07.059Z,3.65
2023-04-25T22:05:34.236Z,4.68
2023-04-25T22:08:00.831Z,3.67
2023-04-25T22:10:27.437Z,4.22
2023-04-25T22:12:54.109Z,3.45
2023-04-25T22:15:23.832Z,3.88
2023-04-25T22:17:52.484Z,3.55
2023-04-25T22:20:22.756Z,3.80
2023-04-25T22:22:49.608Z,3.80
2023-04-25T22:25:16.448Z,4.50
2023-04-25T22:27:46.152Z,3.47
2023-04-25T22:30:13.335Z,3.40
2023-04-25T22:32:40.872Z,4.43
2023-04-25T22:35:08.952Z,4.03
2023-04-25T22:37:35.962Z,3.83
2023-04-25T22:40:07.255Z,4.20
2023-04-25T22:42:38.603Z,4.35
2023-04-25T22:45:08.354Z,4.25
2023-04-25T22:47:36.455Z,5.13
2023-04-25T22:50:06.503Z,4.05
2023-04-25T22:52:34.679Z,4.15
2023-04-25T22:55:03.157Z,4.07
2023-04-25T22:57:30.814Z,4.00
2023-04-25T22:59:58.286Z,5.53
2023-04-25T23:02:25.861Z,3.55
2023-04-25T23:04:53.336Z,5.95
2023-04-25T23:07:20.813Z,4.38
2023-04-25T23:09:47.433Z,4.72
2023-04-25T23:12:16.929Z,4.00
2023-04-25T23:14:43.535Z,4.45
2023-04-25T23:17:10.179Z,4.82
2023-04-25T23:19:38.579Z,4.90
2023-04-25T23:22:06.009Z,4.28
2023-04-25T23:24:37.668Z,4.80
2023-04-25T23:27:05.394Z,4.47
2023-04-25T23:29:34.107Z,4.07
2023-04-25T23:32:04.464Z,4.30
2023-04-25T23:34:34.346Z,3.88
2023-04-25T23:37:01.699Z,4.93
2023-04-25T23:39:28.564Z,4.35
2023-04-25T23:41:55.866Z,4.07
2023-04-25T23:44:22.662Z,4.35
2023-04-25T23:46:50.389Z,5.20
2023-04-25T23:49:17.052Z,4.45
2023-04-25T23:51:44.388Z,5.00
2023-04-25T23:54:11.254Z,4.95
2023-04-25T23:56:41.493Z,4.90
2023-04-25T23:59:09.106Z,4.47
